Archiv-/Tagesdaten

--Timestamp---	Temp	Chill	HIndex	Humid	Dewpt	Wind	HiWind	WindDir	Rain	Barom	Solar	ET	UV
--------------	----	-----	------	-----	-----	----	------	-------	----	-----	-----	--	--
20080129 00:05	-0.6	-0.6	-0.6	92	-1.7	0	0	90	0.00	1030.955	0	0.000	0
20080129 00:10	-0.6	-0.6	-0.6	92	-1.7	0	0	90	0.00	1030.887	0	0.000	0
20080129 00:15	-0.6	-0.6	-0.6	92	-1.7	0	0	90	0.00	1030.887	0	0.000	0
20080129 00:20	-0.6	-0.6	-0.6	91	-1.8	0	0	90	0.00	1030.854	0	0.000	0
20080129 00:25	-0.7	-0.7	-0.7	91	-2.0	0	0	90	0.00	1030.854	0	0.000	0
20080129 00:30	-0.8	-0.8	-0.8	91	-2.1	0	0	90	0.00	1030.854	0	0.000	0
20080129 00:35	-0.9	-0.9	-0.9	91	-2.2	0	0	90	0.00	1030.820	0	0.000	0
20080129 00:40	-1.0	-1.0	-1.0	91	-2.3	0	0	90	0.00	1030.955	0	0.000	0
20080129 00:45	-1.1	-1.1	-1.1	91	-2.4	0	0	90	0.00	1030.921	0	0.000	0
20080129 00:50	-1.2	-1.2	-1.2	91	-2.4	0	0	90	0.00	1030.955	0	0.000	0
20080129 00:55	-1.3	-1.3	-1.3	91	-2.6	0	0	90	0.00	1030.989	0	0.000	0
20080129 01:00	-1.2	-1.2	-1.2	91	-2.4	0	0	90	0.00	1030.921	0	0.000	0
20080129 01:05	-1.2	-1.2	-1.2	91	-2.4	0	0	90	0.00	1030.887	0	0.000	0
20080129 01:10	-1.2	-1.2	-1.2	91	-2.4	0	0	90	0.00	1030.887	0	0.000	0
20080129 01:15	-1.1	-1.1	-1.1	91	-2.3	0	0	90	0.00	1030.854	0	0.000	0
20080129 01:20	-1.0	-1.0	-1.0	91	-2.3	0	3	90	0.00	1030.820	0	0.000	0
20080129 01:25	-1.0	-1.0	-1.0	91	-2.3	0	2	90	0.00	1030.786	0	0.000	0
20080129 01:30	-1.1	-1.1	-1.1	91	-2.3	0	2	90	0.00	1030.752	0	0.000	0
20080129 01:35	-1.1	-1.1	-1.1	91	-2.3	0	3	135	0.00	1030.752	0	0.000	0
20080129 01:40	-1.1	-1.1	-1.1	92	-2.2	2	5	135	0.00	1030.718	0	0.000	0
20080129 01:45	-1.2	-1.2	-1.2	91	-2.4	2	5	180	0.00	1030.515	0	0.000	0
20080129 01:50	-1.3	-1.3	-1.3	91	-2.6	2	5	180	0.00	1030.515	0	0.000	0
20080129 01:55	-1.3	-1.3	-1.3	91	-2.6	0	3	180	0.00	1030.549	0	0.000	0
20080129 02:00	-1.4	-1.4	-1.4	91	-2.7	0	2	180	0.00	1030.515	0	0.000	0
20080129 02:05	-1.4	-1.4	-1.4	91	-2.7	0	2	180	0.00	1030.515	0	0.000	0
20080129 02:10	-1.4	-1.4	-1.4	91	-2.7	2	3	180	0.00	1030.515	0	0.000	0
20080129 02:15	-1.4	-1.4	-1.4	91	-2.7	2	3	180	0.00	1030.515	0	0.000	0
20080129 02:20	-1.5	-1.5	-1.5	91	-2.8	2	3	180	0.00	1030.515	0	0.000	0
20080129 02:25	-1.6	-1.6	-1.6	91	-2.8	0	3	180	0.00	1030.413	0	0.000	0
20080129 02:30	-1.6	-1.6	-1.6	92	-2.7	0	2	180	0.00	1030.413	0	0.000	0
20080129 02:35	-1.7	-1.7	-1.7	92	-2.8	0	3	180	0.00	1030.413	0	0.000	0
20080129 02:40	-1.8	-1.8	-1.8	92	-3.0	0	3	180	0.00	1030.447	0	0.000	0
20080129 02:45	-1.9	-1.9	-1.9	92	-3.1	0	2	180	0.00	1030.413	0	0.000	0
20080129 02:50	-2.0	-2.0	-2.0	92	-3.1	0	0	180	0.00	1030.481	0	0.000	0
20080129 02:55	-2.1	-2.1	-2.1	92	-3.2	0	2	180	0.00	1030.515	0	0.000	0
20080129 03:00	-2.1	-2.1	-2.1	92	-3.2	0	3	180	0.00	1030.515	0	0.000	0
20080129 03:05	-2.3	-2.3	-2.3	92	-3.4	2	5	180	0.00	1030.481	0	0.000	0
20080129 03:10	-2.4	-2.4	-2.4	92	-3.5	2	5	180	0.00	1030.447	0	0.000	0
20080129 03:15	-2.6	-2.6	-2.6	92	-3.7	3	6	225	0.00	1030.379	0	0.000	0
20080129 03:20	-2.7	-2.7	-2.7	93	-3.6	3	6	202	0.00	1030.481	0	0.000	0
20080129 03:25	-2.7	-2.7	-2.7	93	-3.7	2	5	202	0.00	1030.515	0	0.000	0
20080129 03:30	-2.8	-2.8	-2.8	93	-3.7	2	6	202	0.00	1030.481	0	0.000	0
20080129 03:35	-2.7	-2.7	-2.7	93	-3.7	2	5	202	0.00	1030.447	0	0.000	0
20080129 03:40	-2.6	-2.6	-2.6	93	-3.6	0	2	202	0.00	1030.481	0	0.000	0
20080129 03:45	-2.6	-2.6	-2.6	93	-3.5	2	6	202	0.00	1030.481	0	0.000	0
20080129 03:50	-2.6	-2.6	-2.6	93	-3.5	2	5	202	0.00	1030.379	0	0.000	0
20080129 03:55	-2.6	-2.6	-2.6	93	-3.5	2	5	202	0.00	1030.481	0	0.000	0
20080129 04:00	-2.6	-2.6	-2.6	93	-3.6	2	3	202	0.00	1030.515	0	0.000	0
20080129 04:05	-2.6	-2.6	-2.6	93	-3.6	0	0	202	0.00	1030.718	0	0.000	0
20080129 04:10	-2.7	-2.7	-2.7	93	-3.6	0	2	202	0.00	1030.718	0	0.000	0
20080129 04:15	-2.7	-2.7	-2.7	93	-3.7	0	2	202	0.00	1030.616	0	0.000	0
20080129 04:20	-2.8	-2.8	-2.8	93	-3.7	0	0	202	0.00	1030.616	0	0.000	0
20080129 04:25	-2.8	-2.8	-2.8	93	-3.8	0	0	202	0.00	1030.583	0	0.000	0
20080129 04:30	-2.8	-2.8	-2.8	93	-3.8	0	0	202	0.00	1030.549	0	0.000	0
20080129 04:35	-2.8	-2.8	-2.8	93	-3.8	0	3	202	0.00	1030.549	0	0.000	0
20080129 04:40	-2.9	-2.9	-2.9	93	-3.9	2	6	202	0.00	1030.549	0	0.000	0
20080129 04:45	-2.9	-2.9	-2.9	93	-3.9	2	5	202	0.00	1030.549	0	0.000	0
20080129 04:50	-2.9	-2.9	-2.9	94	-3.7	0	3	202	0.00	1030.481	0	0.000	0
20080129 04:55	-2.9	-2.9	-2.9	94	-3.7	0	2	202	0.00	1030.549	0	0.000	0
20080129 05:00	-2.8	-2.8	-2.8	94	-3.7	0	0	202	0.00	1030.549	0	0.000	0
20080129 05:05	-2.8	-2.8	-2.8	94	-3.6	0	3	202	0.00	1030.650	0	0.000	0
20080129 05:10	-2.8	-2.8	-2.8	94	-3.6	0	2	202	0.00	1030.650	0	0.000	0
20080129 05:15	-2.7	-2.7	-2.7	94	-3.6	0	3	202	0.00	1030.616	0	0.000	0
20080129 05:20	-2.7	-2.7	-2.7	94	-3.6	0	2	202	0.00	1030.616	0	0.000	0
20080129 05:25	-2.7	-2.7	-2.7	94	-3.6	0	0	202	0.00	1030.583	0	0.000	0
20080129 05:30	-2.7	-2.7	-2.7	94	-3.5	0	2	202	0.00	1030.583	0	0.000	0
20080129 05:35	-2.7	-2.7	-2.7	94	-3.5	0	2	202	0.00	1030.549	0	0.000	0
20080129 05:40	-2.7	-2.7	-2.7	94	-3.5	0	2	202	0.00	1030.515	0	0.000	0
20080129 05:45	-2.7	-2.7	-2.7	94	-3.5	0	3	202	0.00	1030.515	0	0.000	0
20080129 05:50	-2.7	-2.7	-2.7	94	-3.5	0	0	202	0.00	1030.515	0	0.000	0
20080129 05:55	-2.7	-2.7	-2.7	94	-3.5	0	3	202	0.00	1030.481	0	0.000	0
20080129 06:00	-2.7	-2.7	-2.7	94	-3.5	0	3	202	0.00	1030.549	0	0.000	0
20080129 06:05	-2.7	-2.7	-2.7	94	-3.6	2	6	202	0.00	1030.650	0	0.000	0
20080129 06:10	-2.7	-2.7	-2.7	94	-3.6	2	5	202	0.00	1030.718	0	0.000	0
20080129 06:15	-2.7	-2.7	-2.7	94	-3.6	0	6	202	0.00	1030.684	0	0.000	0
20080129 06:20	-2.7	-2.7	-2.7	94	-3.6	2	5	202	0.00	1030.650	0	0.000	0
20080129 06:25	-2.8	-2.8	-2.8	94	-3.6	2	5	202	0.00	1030.684	0	0.000	0
20080129 06:30	-2.8	-2.8	-2.8	94	-3.7	2	5	202	0.00	1030.718	0	0.000	0
20080129 06:35	-2.9	-2.9	-2.9	94	-3.8	2	5	202	0.00	1030.650	0	0.000	0
20080129 06:40	-3.1	-3.1	-3.1	94	-3.9	2	6	202	0.00	1030.616	0	0.000	0
20080129 06:45	-3.1	-3.1	-3.1	94	-3.9	2	6	202	0.00	1030.854	0	0.000	0
20080129 06:50	-3.2	-3.2	-3.2	94	-4.0	2	5	202	0.00	1030.921	0	0.000	0
20080129 06:55	-3.2	-3.2	-3.2	94	-4.0	2	5	202	0.00	1030.854	0	0.000	0
20080129 07:00	-3.2	-3.2	-3.2	94	-4.0	0	5	202	0.00	1030.921	0	0.000	0
20080129 07:05	-3.2	-3.2	-3.2	94	-4.0	0	3	202	0.00	1030.955	0	0.000	0
20080129 07:10	-3.1	-3.1	-3.1	94	-3.9	0	2	202	0.00	1030.989	0	0.000	0
20080129 07:15	-3.0	-3.0	-3.0	94	-3.8	0	3	202	0.00	1031.057	0	0.000	0
20080129 07:20	-2.9	-2.9	-2.9	94	-3.8	0	0	202	0.00	1031.057	0	0.000	0
20080129 07:25	-2.9	-2.9	-2.9	94	-3.8	0	0	202	0.00	1031.091	0	0.000	0
20080129 07:30	-2.9	-2.9	-2.9	94	-3.7	0	0	202	0.00	1031.091	0	0.000	0
20080129 07:35	-2.9	-2.9	-2.9	94	-3.7	0	0	202	0.00	1031.091	0	0.000	0
20080129 07:40	-2.8	-2.8	-2.8	94	-3.7	0	0	202	0.00	1031.091	0	0.000	0
20080129 07:45	-2.8	-2.8	-2.8	94	-3.7	0	2	202	0.00	1031.158	0	0.000	0
20080129 07:50	-2.9	-2.9	-2.9	94	-3.7	0	0	202	0.00	1031.124	0	0.000	0
20080129 07:55	-3.0	-3.0	-3.0	94	-3.8	0	2	202	0.00	1031.158	3	0.000	0
20080129 08:00	-3.0	-3.0	-3.0	94	-3.8	0	0	202	0.00	1031.192	5	0.000	0
20080129 08:05	-3.1	-3.1	-3.1	94	-3.9	0	2	202	0.00	1031.260	8	0.000	0
20080129 08:10	-3.0	-3.0	-3.0	94	-3.8	0	2	202	0.00	1031.192	12	0.000	0
20080129 08:15	-2.9	-2.9	-2.9	94	-3.8	0	2	202	0.00	1031.158	14	0.000	0
20080129 08:20	-2.7	-2.7	-2.7	94	-3.6	0	2	202	0.00	1031.192	15	0.000	0
20080129 08:25	-2.6	-2.6	-2.6	94	-3.4	0	2	202	0.00	1031.158	17	0.000	0
20080129 08:30	-2.6	-2.6	-2.6	94	-3.4	0	2	202	0.00	1031.057	19	0.000	0
20080129 08:35	-2.6	-2.6	-2.6	94	-3.4	0	3	202	0.00	1031.158	23	0.000	0
20080129 08:40	-2.6	-2.6	-2.6	94	-3.4	0	2	202	0.00	1031.124	26	0.000	0
20080129 08:45	-2.5	-2.5	-2.5	94	-3.3	0	2	202	0.00	1031.158	28	0.000	0
20080129 08:50	-2.4	-2.4	-2.4	94	-3.3	0	2	202	0.00	1031.192	26	0.000	0
20080129 08:55	-2.4	-2.4	-2.4	93	-3.4	0	0	202	0.00	1031.226	25	0.000	0
20080129 09:00	-2.3	-2.3	-2.3	94	-3.2	0	2	202	0.00	1031.158	27	0.000	0
20080129 09:05	-2.2	-2.2	-2.2	93	-3.2	0	0	202	0.00	1031.124	28	0.000	0
20080129 09:10	-2.2	-2.2	-2.2	93	-3.1	0	2	202	0.00	1031.091	34	0.000	0
20080129 09:15	-2.1	-2.1	-2.1	93	-3.1	0	0	202	0.00	1031.091	41	0.000	0
20080129 09:20	-2.1	-2.1	-2.1	93	-3.0	0	0	202	0.00	1031.158	34	0.000	0
20080129 09:25	-2.0	-2.0	-2.0	93	-3.0	0	2	202	0.00	1031.192	38	0.000	0
20080129 09:30	-1.9	-1.9	-1.9	93	-2.9	0	0	202	0.00	1031.124	40	0.000	0
20080129 09:35	-1.7	-1.7	-1.7	93	-2.7	0	0	202	0.00	1031.091	36	0.000	0
20080129 09:40	-1.6	-1.6	-1.6	94	-2.4	0	0	202	0.00	1031.057	35	0.000	0
20080129 09:45	-1.3	-1.3	-1.3	94	-2.2	0	0	202	0.00	1030.887	34	0.000	0
20080129 09:50	-1.1	-1.1	-1.1	94	-1.9	0	2	202	0.00	1030.887	38	0.000	0
20080129 09:55	-0.8	-0.8	-0.8	94	-1.6	0	0	202	0.00	1030.921	39	0.000	0
20080129 10:00	-0.7	-0.7	-0.7	94	-1.5	0	0	202	0.00	1030.854	39	0.000	0
20080129 10:05	-0.6	-0.6	-0.6	94	-1.4	0	0	202	0.00	1030.955	40	0.000	0
20080129 10:10	-0.4	-0.4	-0.4	94	-1.2	0	0	202	0.00	1030.989	40	0.000	0
20080129 10:15	-0.2	-0.2	-0.2	94	-1.1	0	0	202	0.00	1030.989	42	0.000	0
20080129 10:20	0.0	0.0	0.0	94	-0.8	0	0	202	0.00	1031.091	42	0.000	0
20080129 10:25	0.3	0.3	0.3	94	-0.6	0	0	202	0.00	1031.124	40	0.000	0
20080129 10:30	0.4	0.4	0.4	94	-0.4	0	0	202	0.00	1030.921	41	0.000	0
20080129 10:35	0.6	0.6	0.6	94	-0.3	0	3	202	0.00	1030.955	44	0.000	0
20080129 10:40	0.7	0.7	0.7	94	-0.1	0	3	202	0.00	1031.023	47	0.000	0
20080129 10:45	0.8	0.8	0.8	94	-0.0	0	2	202	0.00	1031.023	46	0.000	0
20080129 10:50	1.1	1.1	1.1	94	0.2	0	3	202	0.00	1031.023	48	0.000	0
20080129 10:55	1.3	1.3	1.3	94	0.5	0	2	202	0.00	1031.091	50	0.000	0
20080129 11:00	1.4	1.4	1.4	93	0.4	0	3	202	0.00	1031.091	49	0.020	0
20080129 11:05	1.6	1.6	1.6	93	0.6	0	2	202	0.00	1030.921	47	0.000	0
20080129 11:10	1.9	1.9	1.9	93	0.9	0	3	202	0.00	1030.786	53	0.000	0
20080129 11:15	2.1	2.1	2.1	93	1.1	0	2	202	0.20	1030.718	339	0.000	1
20080129 11:20	2.4	2.4	2.4	93	1.4	0	0	202	0.00	1030.718	344	0.000	1
20080129 11:25	2.7	2.7	2.7	92	1.5	2	3	202	0.00	1030.481	347	0.000	1
20080129 11:30	2.8	2.8	2.8	91	1.5	2	5	202	0.00	1030.447	352	0.000	1
20080129 11:35	3.0	3.0	3.0	90	1.5	2	5	202	0.00	1030.413	354	0.000	1
20080129 11:40	3.2	3.2	3.2	90	1.7	2	5	202	0.00	1030.413	354	0.000	1
20080129 11:45	3.5	3.5	3.5	90	2.0	0	2	202	0.00	1030.312	355	0.000	1
20080129 11:50	3.7	3.7	3.7	89	2.1	0	3	202	0.00	1030.142	357	0.000	1
20080129 11:55	3.9	3.9	3.9	88	2.1	2	3	202	0.00	1030.041	363	0.000	1
20080129 12:00	4.2	4.2	4.2	87	2.2	2	5	202	0.00	1029.905	366	0.080	1
20080129 12:05	4.4	4.4	4.4	85	2.1	3	6	135	0.00	1029.871	371	0.000	1
20080129 12:10	4.7	4.7	4.7	84	2.3	3	8	135	0.00	1029.804	379	0.000	1
20080129 12:15	5.1	5.1	5.1	82	2.2	3	6	67	0.00	1029.770	377	0.000	1
20080129 12:20	5.4	5.4	5.4	80	2.3	3	6	135	0.00	1029.533	376	0.000	1
20080129 12:25	5.5	5.5	5.5	79	2.2	5	10	67	0.00	1029.567	369	0.000	1
20080129 12:30	5.7	5.7	5.7	78	2.1	3	8	135	0.00	1029.499	364	0.000	1
20080129 12:35	5.7	5.7	5.7	77	2.0	5	8	67	0.00	1029.533	331	0.000	1
20080129 12:40	5.8	5.8	5.8	77	2.1	3	10	112	0.00	1029.465	372	0.000	1
20080129 12:45	5.9	4.6	5.9	75	1.8	6	11	67	0.00	1029.431	363	0.000	1
20080129 12:50	5.9	5.9	5.9	76	2.0	5	10	67	0.00	1029.363	368	0.000	1
20080129 12:55	6.0	6.0	6.0	76	2.1	5	8	67	0.00	1029.228	378	0.000	1
20080129 13:00	6.0	4.8	6.0	77	2.3	6	11	67	0.00	1029.126	388	0.120	1
20080129 13:05	5.9	4.7	5.9	77	2.2	6	10	67	0.00	1029.059	374	0.000	1
20080129 13:10	5.9	4.7	5.9	77	2.2	6	11	67	0.00	1028.957	328	0.000	1
20080129 13:15	6.1	4.8	6.1	76	2.1	6	10	67	0.00	1028.889	368	0.000	1
20080129 13:20	6.2	6.2	6.2	75	2.1	5	10	67	0.00	1028.822	382	0.000	1
20080129 13:25	6.4	6.4	6.4	73	2.0	5	10	90	0.00	1028.686	348	0.000	1
20080129 13:30	6.6	6.6	6.6	72	1.9	5	10	135	0.00	1028.585	353	0.000	1
20080129 13:35	6.8	6.8	6.8	71	1.9	5	8	90	0.00	1028.551	357	0.000	1
20080129 13:40	6.9	5.8	6.9	68	1.4	6	14	112	0.00	1028.517	346	0.000	1
20080129 13:45	7.0	7.0	7.0	67	1.3	5	11	112	0.00	1028.449	338	0.000	1
20080129 13:50	7.1	6.0	7.1	67	1.4	6	16	112	0.00	1028.381	339	0.000	1
20080129 13:55	7.1	6.0	7.1	68	1.6	6	14	112	0.00	1028.246	329	0.000	1
20080129 14:00	7.2	7.2	7.2	67	1.5	3	8	90	0.00	1028.178	325	0.000	1
20080129 14:05	7.2	7.2	7.2	67	1.5	5	14	112	0.00	1028.212	321	0.120	1
20080129 14:10	7.2	7.2	7.2	68	1.7	5	11	112	0.00	1028.110	308	0.000	1
20080129 14:15	7.4	7.4	7.4	66	1.5	5	14	135	0.00	1028.043	309	0.000	1
20080129 14:20	7.3	5.8	7.3	65	1.1	8	14	112	0.00	1028.043	347	0.000	1
20080129 14:25	7.2	6.2	7.2	66	1.3	6	16	135	0.00	1028.110	344	0.000	1
20080129 14:30	7.3	6.2	7.3	65	1.1	6	11	135	0.00	1028.009	282	0.000	1
20080129 14:35	7.2	7.2	7.2	65	1.1	5	13	135	0.00	1027.907	272	0.000	1
20080129 14:40	7.2	7.2	7.2	66	1.3	3	10	135	0.00	1027.772	273	0.000	1
20080129 14:45	7.2	7.2	7.2	66	1.3	5	10	135	0.00	1027.738	264	0.000	1
20080129 14:50	7.3	7.3	7.3	67	1.6	5	10	135	0.00	1027.738	219	0.000	1
20080129 14:55	7.2	6.2	7.2	65	1.1	6	14	112	0.00	1027.670	176	0.000	0
20080129 15:00	7.1	7.1	7.1	66	1.2	5	11	112	0.00	1027.670	148	0.100	0
20080129 15:05	7.1	7.1	7.1	66	1.1	5	11	135	0.00	1027.704	138	0.000	0
20080129 15:10	6.9	6.9	6.9	67	1.2	5	10	135	0.00	1027.603	51	0.000	0
20080129 15:15	6.8	6.8	6.8	67	1.1	3	6	90	0.00	1027.738	82	0.000	0
20080129 15:20	6.8	6.8	6.8	67	1.1	5	11	135	0.00	1027.704	81	0.000	0
20080129 15:25	6.7	6.7	6.7	67	1.0	5	10	135	0.00	1027.603	50	0.000	0
20080129 15:30	6.6	6.6	6.6	68	1.1	5	10	135	0.00	1027.603	43	0.000	0
20080129 15:35	6.6	6.6	6.6	69	1.3	2	8	112	0.00	1027.501	44	0.000	0
20080129 15:40	6.5	6.5	6.5	68	1.0	5	10	135	0.00	1027.501	40	0.000	0
20080129 15:45	6.4	5.3	6.4	68	1.0	6	10	135	0.00	1027.433	43	0.000	0
20080129 15:50	6.3	6.3	6.3	69	1.1	3	6	135	0.00	1027.467	47	0.000	0
20080129 15:55	6.3	6.3	6.3	70	1.3	3	8	135	0.00	1027.433	46	0.000	0
20080129 16:00	6.3	6.3	6.3	69	1.0	3	6	112	0.00	1027.399	43	0.040	0
20080129 16:05	6.3	6.3	6.3	69	1.0	3	6	90	0.00	1027.298	42	0.000	0
20080129 16:10	6.2	6.2	6.2	70	1.2	2	6	157	0.00	1027.298	43	0.000	0
20080129 16:15	6.2	6.2	6.2	70	1.1	2	6	157	0.00	1027.230	42	0.000	0
20080129 16:20	6.1	6.1	6.1	71	1.3	5	8	135	0.00	1027.230	39	0.000	0
20080129 16:25	6.0	6.0	6.0	71	1.1	5	10	135	0.00	1027.230	36	0.000	0
20080129 16:30	5.9	5.9	5.9	72	1.3	2	5	112	0.00	1027.230	34	0.000	0
20080129 16:35	5.8	5.8	5.8	72	1.1	3	6	112	0.00	1027.298	30	0.000	0
20080129 16:40	5.7	5.7	5.7	73	1.2	2	6	135	0.00	1027.433	23	0.000	0
20080129 16:45	5.6	5.6	5.6	74	1.3	3	6	135	0.00	1027.399	19	0.000	0
20080129 16:50	5.4	5.4	5.4	74	1.1	2	5	112	0.00	1027.399	15	0.000	0
20080129 16:55	5.2	5.2	5.2	75	1.1	2	3	112	0.00	1027.332	12	0.000	0
20080129 17:00	5.0	5.0	5.0	76	1.1	2	5	90	0.00	1027.399	9	0.020	0
20080129 17:05	4.8	4.8	4.8	77	1.1	0	3	90	0.00	1027.365	3	0.000	0
20080129 17:10	4.6	4.6	4.6	77	0.9	2	3	90	0.00	1027.501	0	0.000	0
20080129 17:15	4.3	4.3	4.3	78	0.8	0	5	112	0.00	1027.433	0	0.000	0
20080129 17:20	4.2	4.2	4.2	79	0.9	2	3	112	0.00	1027.501	0	0.000	0
20080129 17:25	3.9	3.9	3.9	79	0.6	2	5	112	0.00	1027.365	0	0.000	0
20080129 17:30	3.7	3.7	3.7	80	0.6	0	5	90	0.00	1027.332	0	0.000	0
20080129 17:35	3.6	3.6	3.6	80	0.4	0	3	90	0.00	1027.332	0	0.000	0
20080129 17:40	3.4	3.4	3.4	81	0.5	0	2	90	0.00	1027.433	0	0.000	0
20080129 17:45	3.3	3.3	3.3	81	0.3	0	2	90	0.00	1027.433	0	0.000	0
20080129 17:50	3.1	3.1	3.1	82	0.3	0	2	90	0.00	1027.501	0	0.000	0
20080129 17:55	2.9	2.9	2.9	82	0.2	0	2	90	0.00	1027.467	0	0.000	0
20080129 18:00	2.8	2.8	2.8	83	0.2	0	3	90	0.00	1027.433	0	0.000	0
20080129 18:05	2.7	2.7	2.7	83	0.1	2	3	90	0.00	1027.569	0	0.000	0
20080129 18:10	2.6	2.6	2.6	84	0.1	3	5	90	0.00	1027.501	0	0.000	0
20080129 18:15	2.4	2.4	2.4	83	-0.1	2	5	112	0.00	1027.467	0	0.000	0
20080129 18:20	2.3	2.3	2.3	84	-0.1	2	5	112	0.00	1027.467	0	0.000	0
20080129 18:25	2.2	2.2	2.2	85	-0.0	2	3	112	0.00	1027.433	0	0.000	0
20080129 18:30	2.1	2.1	2.1	85	-0.1	2	3	112	0.00	1027.433	0	0.000	0
20080129 18:35	2.0	2.0	2.0	85	-0.3	2	3	112	0.00	1027.467	0	0.000	0
20080129 18:40	1.9	1.9	1.9	86	-0.2	2	3	112	0.00	1027.603	0	0.000	0
20080129 18:45	1.8	1.8	1.8	86	-0.3	2	3	112	0.00	1027.569	0	0.000	0
20080129 18:50	1.6	1.6	1.6	86	-0.5	2	3	112	0.00	1027.467	0	0.000	0
20080129 18:55	1.4	1.4	1.4	87	-0.5	2	5	112	0.00	1027.433	0	0.000	0
20080129 19:00	1.3	1.3	1.3	86	-0.7	2	3	112	0.00	1027.467	0	0.000	0
20080129 19:05	1.3	1.3	1.3	87	-0.6	0	3	112	0.00	1027.332	0	0.000	0
20080129 19:10	1.2	1.2	1.2	87	-0.7	0	3	112	0.00	1027.332	0	0.000	0
20080129 19:15	1.1	1.1	1.1	87	-0.8	2	3	112	0.00	1027.264	0	0.000	0
20080129 19:20	1.0	1.0	1.0	88	-0.8	2	5	112	0.00	1027.162	0	0.000	0
20080129 19:25	0.9	0.9	0.9	88	-0.8	2	3	112	0.00	1027.095	0	0.000	0
20080129 19:30	0.9	0.9	0.9	88	-0.9	2	3	112	0.00	1027.128	0	0.000	0
20080129 19:35	0.8	0.8	0.8	88	-0.9	0	3	112	0.00	1027.061	0	0.000	0
20080129 19:40	0.8	0.8	0.8	88	-1.0	0	3	112	0.00	1026.959	0	0.000	0
20080129 19:45	0.7	0.7	0.7	88	-1.0	0	2	112	0.00	1026.925	0	0.000	0
20080129 19:50	0.7	0.7	0.7	88	-1.1	0	2	112	0.00	1026.858	0	0.000	0
20080129 19:55	0.6	0.6	0.6	88	-1.1	0	2	112	0.00	1026.824	0	0.000	0
20080129 20:00	0.6	0.6	0.6	88	-1.2	0	0	112	0.00	1026.858	0	0.000	0
20080129 20:05	0.5	0.5	0.5	88	-1.3	0	2	112	0.00	1026.790	0	0.000	0
20080129 20:10	0.4	0.4	0.4	88	-1.4	0	2	112	0.00	1026.824	0	0.000	0
20080129 20:15	0.3	0.3	0.3	89	-1.3	0	2	112	0.00	1026.756	0	0.000	0
20080129 20:20	0.2	0.2	0.2	89	-1.4	0	0	112	0.00	1026.756	0	0.000	0
20080129 20:25	0.1	0.1	0.1	89	-1.5	0	5	112	0.00	1026.688	0	0.000	0
20080129 20:30	0.1	0.1	0.1	90	-1.3	0	3	112	0.00	1026.654	0	0.000	0
20080129 20:35	0.1	0.1	0.1	89	-1.5	0	0	112	0.00	1026.553	0	0.000	0
20080129 20:40	0.0	0.0	0.0	89	-1.6	0	0	112	0.00	1026.519	0	0.000	0
20080129 20:45	-0.1	-0.1	-0.1	89	-1.6	0	3	112	0.00	1026.553	0	0.000	0
20080129 20:50	-0.1	-0.1	-0.1	90	-1.6	0	2	112	0.00	1026.553	0	0.000	0
20080129 20:55	-0.1	-0.1	-0.1	90	-1.5	0	2	112	0.00	1026.553	0	0.000	0
20080129 21:00	-0.1	-0.1	-0.1	90	-1.5	0	0	112	0.00	1026.519	0	0.000	0
20080129 21:05	-0.1	-0.1	-0.1	90	-1.5	0	0	112	0.00	1026.350	0	0.000	0
20080129 21:10	-0.1	-0.1	-0.1	90	-1.6	0	2	112	0.00	1026.282	0	0.000	0
20080129 21:15	0.0	0.0	0.0	90	-1.4	2	3	112	0.00	1026.180	0	0.000	0
20080129 21:20	0.2	0.2	0.2	90	-1.3	2	3	112	0.00	1026.079	0	0.000	0
20080129 21:25	0.3	0.3	0.3	90	-1.2	0	3	112	0.00	1025.909	0	0.000	0
20080129 21:30	0.4	0.4	0.4	89	-1.2	0	2	112	0.00	1025.943	0	0.000	0
20080129 21:35	0.3	0.3	0.3	89	-1.3	0	2	112	0.00	1025.875	0	0.000	0
20080129 21:40	0.3	0.3	0.3	89	-1.3	0	2	112	0.00	1025.774	0	0.000	0
20080129 21:45	0.2	0.2	0.2	88	-1.5	0	2	112	0.00	1025.943	0	0.000	0
20080129 21:50	0.2	0.2	0.2	89	-1.4	0	2	112	0.00	1025.909	0	0.000	0
20080129 21:55	0.2	0.2	0.2	89	-1.4	0	2	112	0.00	1025.909	0	0.000	0
20080129 22:00	0.1	0.1	0.1	88	-1.6	0	0	112	0.00	1025.808	0	0.000	0
20080129 22:05	0.0	0.0	0.0	88	-1.7	0	0	112	0.00	1025.503	0	0.000	0
20080129 22:10	-0.1	-0.1	-0.1	88	-1.9	0	0	112	0.00	1025.604	0	0.000	0
20080129 22:15	-0.3	-0.3	-0.3	88	-2.0	0	0	112	0.00	1025.503	0	0.000	0
20080129 22:20	-0.4	-0.4	-0.4	88	-2.2	0	0	112	0.00	1025.367	0	0.000	0
20080129 22:25	-0.6	-0.6	-0.6	88	-2.3	0	0	112	0.00	1025.334	0	0.000	0
20080129 22:30	-0.8	-0.8	-0.8	88	-2.5	0	0	112	0.00	1025.266	0	0.000	0
20080129 22:35	-0.9	-0.9	-0.9	89	-2.5	0	0	112	0.00	1025.435	0	0.000	0
20080129 22:40	-0.9	-0.9	-0.9	89	-2.5	0	0	112	0.00	1025.367	0	0.000	0
20080129 22:45	-0.9	-0.9	-0.9	89	-2.5	0	0	112	0.00	1025.367	0	0.000	0
20080129 22:50	-1.1	-1.1	-1.1	89	-2.6	0	0	112	0.00	1025.334	0	0.000	0
20080129 22:55	-1.2	-1.2	-1.2	89	-2.7	0	0	112	0.00	1025.232	0	0.000	0
20080129 23:00	-1.3	-1.3	-1.3	89	-2.9	0	0	112	0.00	1025.334	0	0.000	0
20080129 23:05	-1.3	-1.3	-1.3	90	-2.7	0	0	112	0.00	1024.893	0	0.000	0
20080129 23:10	-1.3	-1.3	-1.3	90	-2.8	0	0	112	0.00	1024.792	0	0.000	0
20080129 23:15	-1.4	-1.4	-1.4	90	-2.8	0	0	112	0.00	1024.724	0	0.000	0
20080129 23:20	-1.4	-1.4	-1.4	90	-2.9	0	0	112	0.00	1024.724	0	0.000	0
20080129 23:25	-1.5	-1.5	-1.5	90	-2.9	0	0	112	0.00	1024.792	0	0.000	0
20080129 23:30	-1.6	-1.6	-1.6	90	-3.0	0	0	112	0.00	1024.792	0	0.000	0
20080129 23:35	-1.7	-1.7	-1.7	90	-3.1	0	0	112	0.00	1024.792	0	0.000	0
20080129 23:40	-1.6	-1.6	-1.6	90	-3.0	0	0	112	0.00	1024.758	0	0.000	0
20080129 23:45	-1.6	-1.6	-1.6	91	-2.8	0	0	112	0.00	1024.758	0	0.000	0
20080129 23:50	-1.5	-1.5	-1.5	90	-2.9	0	0	112	0.00	1024.690	0	0.000	0
20080129 23:55	-1.6	-1.6	-1.6	90	-3.0	0	2	112	0.00	1024.589	0	0.000	0
20080129 24:00	-1.6	-1.6	-1.6	91	-2.8	0	0	112	0.00	1024.555	0	0.000	0



Please note the license to use and transfer of this data:
http://creativecommons.org/licenses/by-nc-sa/3.0/deed.en

Bitte beachten sie die Lizenz zur Verwertung und Weitergabe der Daten:
http://creativecommons.org/licenses/by-nc-sa/3.0/deed.de

zurück zur Übersicht der Archivdaten (Monats und Tagesdaten)

Cookies helfen bei der Bereitstellung von Inhalten. Durch die Nutzung dieser Seiten erklärst du dich damit einverstanden, dass Cookies auf deinem Rechner gespeichert werden. Weitere Information